sensor_id;sensor_type;location;lat;lon;timestamp;noise_LAeq;noise_LA_min;noise_LA_max;noise_LA01;noise_LA95
72276;Laerm;61204;49.980;8.358;2023-04-27T00:01:52;45.93;40.93;53.91;;
72276;Laerm;61204;49.980;8.358;2023-04-27T00:04:18;46.28;40.31;54.32;;
72276;Laerm;61204;49.980;8.358;2023-04-27T00:06:44;45.06;37.89;51.90;;
72276;Laerm;61204;49.980;8.358;2023-04-27T00:09:10;45.43;40.77;52.62;;
72276;Laerm;61204;49.980;8.358;2023-04-27T00:11:36;46.34;41.45;54.24;;
72276;Laerm;61204;49.980;8.358;2023-04-27T00:14:02;46.85;40.03;54.30;;
72276;Laerm;61204;49.980;8.358;2023-04-27T00:16:27;46.33;40.89;53.31;;
72276;Laerm;61204;49.980;8.358;2023-04-27T00:18:53;47.67;40.86;55.63;;
72276;Laerm;61204;49.980;8.358;2023-04-27T00:21:19;47.13;41.61;60.23;;
72276;Laerm;61204;49.980;8.358;2023-04-27T00:23:44;47.31;41.23;59.59;;
72276;Laerm;61204;49.980;8.358;2023-04-27T00:26:12;49.39;43.81;58.23;;
72276;Laerm;61204;49.980;8.358;2023-04-27T00:28:38;48.94;44.03;55.82;;
72276;Laerm;61204;49.980;8.358;2023-04-27T00:31:03;46.36;40.55;54.90;;
72276;Laerm;61204;49.980;8.358;2023-04-27T00:33:29;50.13;44.60;60.43;;
72276;Laerm;61204;49.980;8.358;2023-04-27T00:35:59;47.18;41.06;55.24;;
72276;Laerm;61204;49.980;8.358;2023-04-27T00:38:26;47.15;41.94;53.98;;
72276;Laerm;61204;49.980;8.358;2023-04-27T00:41:03;48.48;42.78;59.03;;
72276;Laerm;61204;49.980;8.358;2023-04-27T00:43:28;47.67;39.31;55.46;;
72276;Laerm;61204;49.980;8.358;2023-04-27T00:45:54;48.86;41.17;57.05;;
72276;Laerm;61204;49.980;8.358;2023-04-27T00:48:20;47.08;39.56;54.10;;
72276;Laerm;61204;49.980;8.358;2023-04-27T00:50:45;46.01;39.62;50.57;;
72276;Laerm;61204;49.980;8.358;2023-04-27T00:53:11;49.95;41.52;60.59;;
72276;Laerm;61204;49.980;8.358;2023-04-27T00:55:37;45.31;40.10;56.32;;
72276;Laerm;61204;49.980;8.358;2023-04-27T00:58:04;45.36;39.66;65.28;;
72276;Laerm;61204;49.980;8.358;2023-04-27T01:00:30;46.84;42.11;52.84;;
72276;Laerm;61204;49.980;8.358;2023-04-27T01:02:55;45.05;39.45;56.09;;
72276;Laerm;61204;49.980;8.358;2023-04-27T01:05:24;45.01;39.80;50.80;;
72276;Laerm;61204;49.980;8.358;2023-04-27T01:07:50;46.85;39.63;58.19;;
72276;Laerm;61204;49.980;8.358;2023-04-27T01:10:15;44.94;38.71;53.09;;
72276;Laerm;61204;49.980;8.358;2023-04-27T01:12:43;47.00;41.56;54.79;;
72276;Laerm;61204;49.980;8.358;2023-04-27T01:15:09;45.00;40.04;53.09;;
72276;Laerm;61204;49.980;8.358;2023-04-27T01:17:35;47.72;39.80;59.31;;
72276;Laerm;61204;49.980;8.358;2023-04-27T01:20:01;45.25;38.51;55.31;;
72276;Laerm;61204;49.980;8.358;2023-04-27T01:22:27;44.47;39.04;55.29;;
72276;Laerm;61204;49.980;8.358;2023-04-27T01:24:52;47.36;41.84;54.50;;
72276;Laerm;61204;49.980;8.358;2023-04-27T01:27:18;46.19;39.20;56.36;;
72276;Laerm;61204;49.980;8.358;2023-04-27T01:29:43;45.83;40.28;52.26;;
72276;Laerm;61204;49.980;8.358;2023-04-27T01:32:11;45.04;39.99;57.30;;
72276;Laerm;61204;49.980;8.358;2023-04-27T01:34:39;43.42;38.40;49.49;;
72276;Laerm;61204;49.980;8.358;2023-04-27T01:37:05;44.56;38.06;53.98;;
72276;Laerm;61204;49.980;8.358;2023-04-27T01:39:30;44.26;38.89;53.98;;
72276;Laerm;61204;49.980;8.358;2023-04-27T01:41:55;44.84;40.24;52.04;;
72276;Laerm;61204;49.980;8.358;2023-04-27T01:44:23;46.83;42.43;52.60;;
72276;Laerm;61204;49.980;8.358;2023-04-27T01:46:49;45.29;40.92;55.84;;
72276;Laerm;61204;49.980;8.358;2023-04-27T01:49:15;46.85;42.42;52.45;;
72276;Laerm;61204;49.980;8.358;2023-04-27T01:51:41;47.83;40.89;55.65;;
72276;Laerm;61204;49.980;8.358;2023-04-27T01:54:06;46.73;41.94;52.18;;
72276;Laerm;61204;49.980;8.358;2023-04-27T01:56:32;45.29;40.71;53.18;;
72276;Laerm;61204;49.980;8.358;2023-04-27T01:59:00;45.32;39.30;51.21;;
72276;Laerm;61204;49.980;8.358;2023-04-27T02:01:26;45.52;40.19;52.77;;
72276;Laerm;61204;49.980;8.358;2023-04-27T02:03:52;46.19;40.40;53.33;;
72276;Laerm;61204;49.980;8.358;2023-04-27T02:06:17;47.75;42.13;53.81;;
72276;Laerm;61204;49.980;8.358;2023-04-27T02:08:43;47.86;44.03;53.25;;
72276;Laerm;61204;49.980;8.358;2023-04-27T02:11:08;46.23;41.36;51.28;;
72276;Laerm;61204;49.980;8.358;2023-04-27T02:13:36;45.58;40.59;49.21;;
72276;Laerm;61204;49.980;8.358;2023-04-27T02:16:02;46.94;42.87;54.30;;
72276;Laerm;61204;49.980;8.358;2023-04-27T02:18:29;46.78;41.16;51.39;;
72276;Laerm;61204;49.980;8.358;2023-04-27T02:20:57;47.77;42.92;56.69;;
72276;Laerm;61204;49.980;8.358;2023-04-27T02:23:22;49.13;44.46;59.07;;
72276;Laerm;61204;49.980;8.358;2023-04-27T02:25:48;51.66;43.38;63.65;;
72276;Laerm;61204;49.980;8.358;2023-04-27T02:28:13;47.84;42.72;54.16;;
72276;Laerm;61204;49.980;8.358;2023-04-27T02:30:39;47.55;43.07;56.81;;
72276;Laerm;61204;49.980;8.358;2023-04-27T02:33:04;46.67;42.29;52.62;;
72276;Laerm;61204;49.980;8.358;2023-04-27T02:35:30;46.55;41.90;52.67;;
72276;Laerm;61204;49.980;8.358;2023-04-27T02:37:57;49.41;41.75;61.96;;
72276;Laerm;61204;49.980;8.358;2023-04-27T02:40:25;48.78;42.11;58.05;;
72276;Laerm;61204;49.980;8.358;2023-04-27T02:42:51;49.68;45.70;55.04;;
72276;Laerm;61204;49.980;8.358;2023-04-27T02:45:16;48.57;44.01;57.65;;
72276;Laerm;61204;49.980;8.358;2023-04-27T02:47:42;49.66;43.38;57.39;;
72276;Laerm;61204;49.980;8.358;2023-04-27T02:50:08;49.77;45.00;58.19;;
72276;Laerm;61204;49.980;8.358;2023-04-27T02:52:34;51.11;44.98;58.27;;
72276;Laerm;61204;49.980;8.358;2023-04-27T02:54:59;50.49;45.79;58.05;;
72276;Laerm;61204;49.980;8.358;2023-04-27T02:57:29;50.40;44.01;58.70;;
72276;Laerm;61204;49.980;8.358;2023-04-27T02:59:55;53.98;45.69;62.77;;
72276;Laerm;61204;49.980;8.358;2023-04-27T03:02:23;57.59;45.70;72.67;;
72276;Laerm;61204;49.980;8.358;2023-04-27T03:04:52;60.86;45.72;74.78;;
72276;Laerm;61204;49.980;8.358;2023-04-27T03:07:21;62.86;46.79;75.47;;
72276;Laerm;61204;49.980;8.358;2023-04-27T03:09:47;61.89;46.23;77.92;;
72276;Laerm;61204;49.980;8.358;2023-04-27T03:12:12;64.68;47.49;77.19;;
72276;Laerm;61204;49.980;8.358;2023-04-27T03:14:40;63.14;45.01;77.99;;
72276;Laerm;61204;49.980;8.358;2023-04-27T03:17:23;64.31;47.00;78.33;;
72276;Laerm;61204;49.980;8.358;2023-04-27T03:19:49;67.83;47.29;82.90;;
72276;Laerm;61204;49.980;8.358;2023-04-27T03:22:16;59.60;48.16;81.36;;
72276;Laerm;61204;49.980;8.358;2023-04-27T03:24:44;58.64;46.93;73.69;;
72276;Laerm;61204;49.980;8.358;2023-04-27T03:27:11;57.99;47.63;71.66;;
72276;Laerm;61204;49.980;8.358;2023-04-27T03:29:36;58.40;46.70;73.53;;
72276;Laerm;61204;49.980;8.358;2023-04-27T03:32:02;58.47;46.81;71.51;;
72276;Laerm;61204;49.980;8.358;2023-04-27T03:34:29;57.57;48.99;71.44;;
72276;Laerm;61204;49.980;8.358;2023-04-27T03:36:55;61.40;48.96;74.82;;
72276;Laerm;61204;49.980;8.358;2023-04-27T03:39:23;57.74;49.16;72.62;;
72276;Laerm;61204;49.980;8.358;2023-04-27T03:41:48;58.49;49.03;73.88;;
72276;Laerm;61204;49.980;8.358;2023-04-27T03:44:14;61.23;49.73;73.48;;
72276;Laerm;61204;49.980;8.358;2023-04-27T03:46:39;61.10;50.08;72.37;;
72276;Laerm;61204;49.980;8.358;2023-04-27T03:49:05;59.06;47.76;69.67;;
72276;Laerm;61204;49.980;8.358;2023-04-27T03:51:31;57.27;48.11;76.36;;
72276;Laerm;61204;49.980;8.358;2023-04-27T03:53:59;55.94;47.95;67.41;;
72276;Laerm;61204;49.980;8.358;2023-04-27T03:56:25;54.56;47.91;68.55;;
72276;Laerm;61204;49.980;8.358;2023-04-27T03:58:50;55.04;48.26;67.97;;
72276;Laerm;61204;49.980;8.358;2023-04-27T04:01:16;56.24;48.68;69.85;;
72276;Laerm;61204;49.980;8.358;2023-04-27T04:03:43;55.11;48.45;69.07;;
72276;Laerm;61204;49.980;8.358;2023-04-27T04:06:09;56.47;48.36;69.99;;
72276;Laerm;61204;49.980;8.358;2023-04-27T04:08:35;54.16;48.16;69.39;;
72276;Laerm;61204;49.980;8.358;2023-04-27T04:11:02;54.91;47.49;71.03;;
72276;Laerm;61204;49.980;8.358;2023-04-27T04:13:30;52.94;48.13;65.12;;
72276;Laerm;61204;49.980;8.358;2023-04-27T04:16:07;59.74;47.67;71.40;;
72276;Laerm;61204;49.980;8.358;2023-04-27T04:18:34;56.12;47.26;68.06;;
72276;Laerm;61204;49.980;8.358;2023-04-27T04:21:00;55.49;48.22;67.05;;
72276;Laerm;61204;49.980;8.358;2023-04-27T04:23:26;59.26;48.05;69.25;;
72276;Laerm;61204;49.980;8.358;2023-04-27T04:25:55;57.38;48.36;68.24;;
72276;Laerm;61204;49.980;8.358;2023-04-27T04:28:22;54.75;48.08;67.15;;
72276;Laerm;61204;49.980;8.358;2023-04-27T04:30:48;55.20;47.64;63.25;;
72276;Laerm;61204;49.980;8.358;2023-04-27T04:33:16;56.53;48.09;65.59;;
72276;Laerm;61204;49.980;8.358;2023-04-27T04:35:42;54.82;49.41;64.78;;
72276;Laerm;61204;49.980;8.358;2023-04-27T04:38:11;59.60;48.25;71.85;;
72276;Laerm;61204;49.980;8.358;2023-04-27T04:40:38;59.73;50.40;71.16;;
72276;Laerm;61204;49.980;8.358;2023-04-27T04:43:04;56.75;49.05;67.63;;
72276;Laerm;61204;49.980;8.358;2023-04-27T04:45:30;58.17;48.44;68.72;;
72276;Laerm;61204;49.980;8.358;2023-04-27T04:47:56;58.21;49.80;69.44;;
72276;Laerm;61204;49.980;8.358;2023-04-27T04:50:22;55.09;48.87;64.60;;
72276;Laerm;61204;49.980;8.358;2023-04-27T04:52:48;58.36;49.19;70.13;;
72276;Laerm;61204;49.980;8.358;2023-04-27T04:55:14;59.88;49.34;71.58;;
72276;Laerm;61204;49.980;8.358;2023-04-27T04:57:39;56.66;49.10;67.91;;
72276;Laerm;61204;49.980;8.358;2023-04-27T05:00:10;53.15;48.80;67.83;;
72276;Laerm;61204;49.980;8.358;2023-04-27T05:02:37;60.32;47.96;72.28;;
72276;Laerm;61204;49.980;8.358;2023-04-27T05:05:03;55.46;48.44;64.44;;
72276;Laerm;61204;49.980;8.358;2023-04-27T05:07:28;56.28;48.82;65.51;;
72276;Laerm;61204;49.980;8.358;2023-04-27T05:09:54;53.34;47.58;69.24;;
72276;Laerm;61204;49.980;8.358;2023-04-27T05:12:21;58.04;47.61;69.26;;
72276;Laerm;61204;49.980;8.358;2023-04-27T05:14:47;57.61;48.68;67.75;;
72276;Laerm;61204;49.980;8.358;2023-04-27T05:17:13;57.46;47.96;69.76;;
72276;Laerm;61204;49.980;8.358;2023-04-27T05:19:38;57.53;48.46;69.13;;
72276;Laerm;61204;49.980;8.358;2023-04-27T05:22:04;57.91;47.52;68.94;;
72276;Laerm;61204;49.980;8.358;2023-04-27T05:24:29;58.22;48.18;68.40;;
72276;Laerm;61204;49.980;8.358;2023-04-27T05:26:55;58.91;48.00;70.26;;
72276;Laerm;61204;49.980;8.358;2023-04-27T05:29:23;60.16;48.43;70.44;;
72276;Laerm;61204;49.980;8.358;2023-04-27T05:31:49;56.14;47.83;64.68;;
72276;Laerm;61204;49.980;8.358;2023-04-27T05:34:15;60.16;47.87;72.04;;
72276;Laerm;61204;49.980;8.358;2023-04-27T05:36:40;58.00;47.44;72.84;;
72276;Laerm;61204;49.980;8.358;2023-04-27T05:39:06;59.70;48.11;70.80;;
72276;Laerm;61204;49.980;8.358;2023-04-27T05:41:32;56.35;49.12;64.39;;
72276;Laerm;61204;49.980;8.358;2023-04-27T05:43:57;58.83;48.17;71.89;;
72276;Laerm;61204;49.980;8.358;2023-04-27T05:46:23;50.87;46.79;62.19;;
72276;Laerm;61204;49.980;8.358;2023-04-27T05:48:50;55.48;47.43;69.26;;
72276;Laerm;61204;49.980;8.358;2023-04-27T05:51:16;51.89;47.27;65.53;;
72276;Laerm;61204;49.980;8.358;2023-04-27T05:53:41;56.68;46.85;66.21;;
72276;Laerm;61204;49.980;8.358;2023-04-27T05:56:07;56.95;47.37;69.89;;
72276;Laerm;61204;49.980;8.358;2023-04-27T05:58:33;59.07;46.49;72.20;;
72276;Laerm;61204;49.980;8.358;2023-04-27T06:01:02;58.24;46.88;69.52;;
72276;Laerm;61204;49.980;8.358;2023-04-27T06:03:30;59.57;47.45;71.44;;
72276;Laerm;61204;49.980;8.358;2023-04-27T06:05:59;55.96;47.43;65.38;;
72276;Laerm;61204;49.980;8.358;2023-04-27T06:08:26;53.70;45.31;67.25;;
72276;Laerm;61204;49.980;8.358;2023-04-27T06:10:52;52.89;46.08;62.18;;
72276;Laerm;61204;49.980;8.358;2023-04-27T06:13:20;55.92;46.91;66.55;;
72276;Laerm;61204;49.980;8.358;2023-04-27T06:15:46;56.79;46.23;69.88;;
72276;Laerm;61204;49.980;8.358;2023-04-27T06:18:13;55.30;46.14;66.38;;
72276;Laerm;61204;49.980;8.358;2023-04-27T06:20:42;57.30;46.72;71.65;;
72276;Laerm;61204;49.980;8.358;2023-04-27T06:23:07;56.38;47.28;66.96;;
72276;Laerm;61204;49.980;8.358;2023-04-27T06:25:33;57.55;47.13;68.92;;
72276;Laerm;61204;49.980;8.358;2023-04-27T06:27:59;61.08;44.12;73.31;;
72276;Laerm;61204;49.980;8.358;2023-04-27T06:30:25;54.32;45.02;65.92;;
72276;Laerm;61204;49.980;8.358;2023-04-27T06:32:51;57.96;45.74;68.92;;
72276;Laerm;61204;49.980;8.358;2023-04-27T06:35:17;56.21;45.55;66.87;;
72276;Laerm;61204;49.980;8.358;2023-04-27T06:37:43;59.31;45.91;70.50;;
72276;Laerm;61204;49.980;8.358;2023-04-27T06:40:09;54.90;47.44;65.89;;
72276;Laerm;61204;49.980;8.358;2023-04-27T06:42:36;60.69;46.53;73.32;;
72276;Laerm;61204;49.980;8.358;2023-04-27T06:45:02;54.79;46.06;67.23;;
72276;Laerm;61204;49.980;8.358;2023-04-27T06:47:28;55.31;46.93;67.63;;
72276;Laerm;61204;49.980;8.358;2023-04-27T06:49:54;56.15;44.42;65.67;;
72276;Laerm;61204;49.980;8.358;2023-04-27T06:52:20;58.16;45.73;69.53;;
72276;Laerm;61204;49.980;8.358;2023-04-27T06:54:46;55.29;44.88;69.40;;
72276;Laerm;61204;49.980;8.358;2023-04-27T06:57:11;53.53;45.75;64.51;;
72276;Laerm;61204;49.980;8.358;2023-04-27T06:59:37;54.82;43.98;68.48;;
72276;Laerm;61204;49.980;8.358;2023-04-27T07:02:06;57.71;44.44;67.72;;
72276;Laerm;61204;49.980;8.358;2023-04-27T07:04:35;51.88;43.86;62.08;;
72276;Laerm;61204;49.980;8.358;2023-04-27T07:07:02;51.46;45.02;61.91;;
72276;Laerm;61204;49.980;8.358;2023-04-27T07:09:27;56.49;44.30;69.48;;
72276;Laerm;61204;49.980;8.358;2023-04-27T07:11:54;55.98;43.90;66.00;;
72276;Laerm;61204;49.980;8.358;2023-04-27T07:14:19;60.95;46.85;73.51;;
72276;Laerm;61204;49.980;8.358;2023-04-27T07:16:45;53.15;45.58;66.62;;
72276;Laerm;61204;49.980;8.358;2023-04-27T07:19:11;58.37;44.95;70.30;;
72276;Laerm;61204;49.980;8.358;2023-04-27T07:21:36;55.32;43.86;66.46;;
72276;Laerm;61204;49.980;8.358;2023-04-27T07:24:02;52.53;43.82;65.68;;
72276;Laerm;61204;49.980;8.358;2023-04-27T07:26:28;57.85;45.57;68.98;;
72276;Laerm;61204;49.980;8.358;2023-04-27T07:28:56;53.95;45.40;64.57;;
72276;Laerm;61204;49.980;8.358;2023-04-27T07:31:22;52.92;43.25;67.49;;
72276;Laerm;61204;49.980;8.358;2023-04-27T07:33:47;60.09;45.03;74.53;;
72276;Laerm;61204;49.980;8.358;2023-04-27T07:36:13;59.79;45.14;72.03;;
72276;Laerm;61204;49.980;8.358;2023-04-27T07:38:38;53.59;44.65;66.72;;
72276;Laerm;61204;49.980;8.358;2023-04-27T07:41:04;54.99;43.67;66.83;;
72276;Laerm;61204;49.980;8.358;2023-04-27T07:43:30;49.06;43.26;63.31;;
72276;Laerm;61204;49.980;8.358;2023-04-27T07:45:56;50.72;43.47;59.87;;
72276;Laerm;61204;49.980;8.358;2023-04-27T07:48:23;61.88;42.84;75.82;;
72276;Laerm;61204;49.980;8.358;2023-04-27T07:50:49;55.30;42.66;70.38;;
72276;Laerm;61204;49.980;8.358;2023-04-27T07:53:15;47.09;41.72;65.86;;
72276;Laerm;61204;49.980;8.358;2023-04-27T07:55:41;50.00;44.11;63.76;;
72276;Laerm;61204;49.980;8.358;2023-04-27T07:58:09;49.87;42.15;59.32;;
72276;Laerm;61204;49.980;8.358;2023-04-27T08:00:35;55.60;44.67;68.17;;
72276;Laerm;61204;49.980;8.358;2023-04-27T08:03:03;54.85;43.76;67.69;;
72276;Laerm;61204;49.980;8.358;2023-04-27T08:05:29;53.92;45.31;65.04;;
72276;Laerm;61204;49.980;8.358;2023-04-27T08:07:56;59.73;43.32;71.52;;
72276;Laerm;61204;49.980;8.358;2023-04-27T08:10:22;54.27;43.11;65.95;;
72276;Laerm;61204;49.980;8.358;2023-04-27T08:12:48;54.87;43.54;67.53;;
72276;Laerm;61204;49.980;8.358;2023-04-27T08:15:14;50.48;43.17;63.87;;
72276;Laerm;61204;49.980;8.358;2023-04-27T08:17:40;58.03;44.18;75.02;;
72276;Laerm;61204;49.980;8.358;2023-04-27T08:20:07;59.11;47.18;71.76;;
72276;Laerm;61204;49.980;8.358;2023-04-27T08:22:39;49.38;44.25;60.30;;
72276;Laerm;61204;49.980;8.358;2023-04-27T08:25:06;54.82;43.02;69.01;;
72276;Laerm;61204;49.980;8.358;2023-04-27T08:27:35;55.26;43.28;68.25;;
72276;Laerm;61204;49.980;8.358;2023-04-27T08:30:01;51.24;42.45;65.15;;
72276;Laerm;61204;49.980;8.358;2023-04-27T08:32:26;55.51;44.90;68.80;;
72276;Laerm;61204;49.980;8.358;2023-04-27T08:34:52;53.72;41.63;65.77;;
72276;Laerm;61204;49.980;8.358;2023-04-27T08:37:18;59.55;42.32;74.08;;
72276;Laerm;61204;49.980;8.358;2023-04-27T08:39:43;54.35;42.12;72.79;;
72276;Laerm;61204;49.980;8.358;2023-04-27T08:42:10;54.63;43.02;68.35;;
72276;Laerm;61204;49.980;8.358;2023-04-27T08:44:43;55.42;43.52;71.43;;
72276;Laerm;61204;49.980;8.358;2023-04-27T08:47:09;54.31;44.49;68.49;;
72276;Laerm;61204;49.980;8.358;2023-04-27T08:49:36;60.19;44.80;74.77;;
72276;Laerm;61204;49.980;8.358;2023-04-27T08:52:15;61.31;43.01;73.31;;
72276;Laerm;61204;49.980;8.358;2023-04-27T08:54:41;58.77;43.65;72.97;;
72276;Laerm;61204;49.980;8.358;2023-04-27T08:57:12;61.97;42.20;75.19;;
72276;Laerm;61204;49.980;8.358;2023-04-27T08:59:39;52.25;42.71;62.79;;
72276;Laerm;61204;49.980;8.358;2023-04-27T09:02:05;60.25;44.55;74.43;;
72276;Laerm;61204;49.980;8.358;2023-04-27T09:04:40;48.99;42.46;58.68;;
72276;Laerm;61204;49.980;8.358;2023-04-27T09:07:17;49.58;42.63;60.63;;
72276;Laerm;61204;49.980;8.358;2023-04-27T09:09:44;52.01;42.39;66.71;;
72276;Laerm;61204;49.980;8.358;2023-04-27T09:12:17;51.00;41.10;66.21;;
72276;Laerm;61204;49.980;8.358;2023-04-27T09:14:55;54.21;43.05;70.54;;
72276;Laerm;61204;49.980;8.358;2023-04-27T09:17:28;48.71;42.04;66.62;;
72276;Laerm;61204;49.980;8.358;2023-04-27T09:20:05;48.82;42.84;59.82;;
72276;Laerm;61204;49.980;8.358;2023-04-27T09:22:45;49.78;42.38;65.38;;
72276;Laerm;61204;49.980;8.358;2023-04-27T09:25:31;56.20;42.67;68.87;;
72276;Laerm;61204;49.980;8.358;2023-04-27T09:27:59;54.15;42.58;69.00;;
72276;Laerm;61204;49.980;8.358;2023-04-27T09:30:27;48.76;42.54;62.77;;
72276;Laerm;61204;49.980;8.358;2023-04-27T09:33:00;59.72;42.21;74.74;;
72276;Laerm;61204;49.980;8.358;2023-04-27T09:35:30;54.00;43.36;68.52;;
72276;Laerm;61204;49.980;8.358;2023-04-27T09:37:57;52.38;42.94;67.44;;
72276;Laerm;61204;49.980;8.358;2023-04-27T09:40:26;57.20;43.36;73.40;;
72276;Laerm;61204;49.980;8.358;2023-04-27T09:42:54;49.49;42.79;63.07;;
72276;Laerm;61204;49.980;8.358;2023-04-27T09:45:22;54.27;43.10;67.89;;
72276;Laerm;61204;49.980;8.358;2023-04-27T09:47:48;54.23;42.15;68.86;;
72276;Laerm;61204;49.980;8.358;2023-04-27T09:50:14;53.08;43.73;68.79;;
72276;Laerm;61204;49.980;8.358;2023-04-27T09:52:41;56.93;44.99;69.59;;
72276;Laerm;61204;49.980;8.358;2023-04-27T09:55:10;53.50;43.86;65.62;;
72276;Laerm;61204;49.980;8.358;2023-04-27T10:03:28;45.95;41.37;61.48;;
72276;Laerm;61204;49.980;8.358;2023-04-27T10:08:46;51.91;42.88;68.55;;
72276;Laerm;61204;49.980;8.358;2023-04-27T10:11:20;53.99;41.75;70.37;;
72276;Laerm;61204;49.980;8.358;2023-04-27T10:13:54;52.55;41.72;68.89;;
72276;Laerm;61204;49.980;8.358;2023-04-27T10:16:20;61.43;43.67;75.75;;
72276;Laerm;61204;49.980;8.358;2023-04-27T10:18:54;54.10;40.02;67.61;;
72276;Laerm;61204;49.980;8.358;2023-04-27T10:21:20;56.20;43.11;68.40;;
72276;Laerm;61204;49.980;8.358;2023-04-27T10:23:48;54.01;40.46;68.24;;
72276;Laerm;61204;49.980;8.358;2023-04-27T10:26:26;55.57;42.55;68.03;;
72276;Laerm;61204;49.980;8.358;2023-04-27T10:29:07;58.93;42.80;72.00;;
72276;Laerm;61204;49.980;8.358;2023-04-27T10:31:33;61.18;43.55;74.18;;
72276;Laerm;61204;49.980;8.358;2023-04-27T10:34:14;55.22;42.68;68.07;;
72276;Laerm;61204;49.980;8.358;2023-04-27T10:36:39;54.01;43.74;67.46;;
72276;Laerm;61204;49.980;8.358;2023-04-27T10:39:20;54.46;45.33;72.42;;
72276;Laerm;61204;49.980;8.358;2023-04-27T10:41:52;56.70;44.50;73.11;;
72276;Laerm;61204;49.980;8.358;2023-04-27T10:46:53;48.18;43.49;63.27;;
72276;Laerm;61204;49.980;8.358;2023-04-27T10:49:19;48.14;43.25;58.90;;
72276;Laerm;61204;49.980;8.358;2023-04-27T10:51:45;57.66;44.03;71.20;;
72276;Laerm;61204;49.980;8.358;2023-04-27T10:54:12;48.66;43.58;59.81;;
72276;Laerm;61204;49.980;8.358;2023-04-27T10:56:40;48.82;43.61;59.67;;
72276;Laerm;61204;49.980;8.358;2023-04-27T10:59:06;49.85;44.79;63.28;;
72276;Laerm;61204;49.980;8.358;2023-04-27T11:01:35;52.13;46.98;58.35;;
72276;Laerm;61204;49.980;8.358;2023-04-27T11:04:02;50.80;44.46;62.34;;
72276;Laerm;61204;49.980;8.358;2023-04-27T11:06:29;49.96;44.04;57.97;;
72276;Laerm;61204;49.980;8.358;2023-04-27T11:08:58;48.28;41.62;61.95;;
72276;Laerm;61204;49.980;8.358;2023-04-27T11:11:23;57.18;41.75;71.30;;
72276;Laerm;61204;49.980;8.358;2023-04-27T11:13:51;52.71;42.34;66.79;;
72276;Laerm;61204;49.980;8.358;2023-04-27T11:16:20;54.92;43.30;72.75;;
72276;Laerm;61204;49.980;8.358;2023-04-27T11:18:45;58.58;42.87;72.78;;
72276;Laerm;61204;49.980;8.358;2023-04-27T11:21:14;56.78;45.80;73.98;;
72276;Laerm;61204;49.980;8.358;2023-04-27T11:23:41;59.87;47.93;71.61;;
72276;Laerm;61204;49.980;8.358;2023-04-27T11:26:15;52.88;46.87;63.19;;
72276;Laerm;61204;49.980;8.358;2023-04-27T11:28:56;50.24;45.58;61.46;;
72276;Laerm;61204;49.980;8.358;2023-04-27T11:31:23;48.28;43.60;54.56;;
72276;Laerm;61204;49.980;8.358;2023-04-27T11:33:50;48.67;42.25;70.69;;
72276;Laerm;61204;49.980;8.358;2023-04-27T11:36:21;53.52;42.11;64.48;;
72276;Laerm;61204;49.980;8.358;2023-04-27T11:38:47;59.22;46.14;71.82;;
72276;Laerm;61204;49.980;8.358;2023-04-27T11:41:13;55.46;47.34;67.62;;
72276;Laerm;61204;49.980;8.358;2023-04-27T11:43:42;62.07;48.40;76.20;;
72276;Laerm;61204;49.980;8.358;2023-04-27T11:46:10;56.20;46.12;68.40;;
72276;Laerm;61204;49.980;8.358;2023-04-27T11:48:37;52.05;45.02;65.83;;
72276;Laerm;61204;49.980;8.358;2023-04-27T11:51:04;50.11;42.80;63.38;;
72276;Laerm;61204;49.980;8.358;2023-04-27T11:55:59;54.57;47.64;66.08;;
72276;Laerm;61204;49.980;8.358;2023-04-27T11:58:27;53.65;49.12;60.69;;
72276;Laerm;61204;49.980;8.358;2023-04-27T12:00:56;56.37;47.29;71.88;;
72276;Laerm;61204;49.980;8.358;2023-04-27T12:03:22;56.29;48.95;70.76;;
72276;Laerm;61204;49.980;8.358;2023-04-27T12:05:49;58.57;47.97;71.44;;
72276;Laerm;61204;49.980;8.358;2023-04-27T12:08:18;55.78;47.13;69.14;;
72276;Laerm;61204;49.980;8.358;2023-04-27T12:10:44;52.05;46.81;58.41;;
72276;Laerm;61204;49.980;8.358;2023-04-27T12:13:10;52.75;45.83;62.64;;
72276;Laerm;61204;49.980;8.358;2023-04-27T12:15:37;51.23;45.18;62.58;;
72276;Laerm;61204;49.980;8.358;2023-04-27T12:18:03;50.60;43.82;62.81;;
72276;Laerm;61204;49.980;8.358;2023-04-27T12:20:28;49.41;45.24;55.86;;
72276;Laerm;61204;49.980;8.358;2023-04-27T12:22:56;51.43;45.26;64.62;;
72276;Laerm;61204;49.980;8.358;2023-04-27T12:25:22;55.98;46.12;70.62;;
72276;Laerm;61204;49.980;8.358;2023-04-27T12:27:49;51.15;46.12;65.92;;
72276;Laerm;61204;49.980;8.358;2023-04-27T12:30:15;53.69;46.10;68.16;;
72276;Laerm;61204;49.980;8.358;2023-04-27T12:32:41;56.95;46.52;67.66;;
72276;Laerm;61204;49.980;8.358;2023-04-27T12:35:08;52.99;47.02;63.55;;
72276;Laerm;61204;49.980;8.358;2023-04-27T12:37:34;55.85;46.87;68.54;;
72276;Laerm;61204;49.980;8.358;2023-04-27T12:39:59;56.71;48.53;69.37;;
72276;Laerm;61204;49.980;8.358;2023-04-27T12:42:25;59.68;46.93;73.12;;
72276;Laerm;61204;49.980;8.358;2023-04-27T12:44:52;54.81;45.39;68.60;;
72276;Laerm;61204;49.980;8.358;2023-04-27T12:47:21;50.98;45.05;58.81;;
72276;Laerm;61204;49.980;8.358;2023-04-27T12:49:47;54.75;46.40;66.87;;
72276;Laerm;61204;49.980;8.358;2023-04-27T12:52:12;54.80;45.29;65.19;;
72276;Laerm;61204;49.980;8.358;2023-04-27T12:54:38;57.92;45.95;70.12;;
72276;Laerm;61204;49.980;8.358;2023-04-27T12:57:04;55.79;46.63;67.09;;
72276;Laerm;61204;49.980;8.358;2023-04-27T12:59:34;58.66;46.03;71.40;;
72276;Laerm;61204;49.980;8.358;2023-04-27T13:02:01;55.03;43.80;68.21;;
72276;Laerm;61204;49.980;8.358;2023-04-27T13:04:30;54.89;41.82;69.32;;
72276;Laerm;61204;49.980;8.358;2023-04-27T13:06:57;48.23;41.76;57.79;;
72276;Laerm;61204;49.980;8.358;2023-04-27T13:09:28;52.19;45.43;68.74;;
72276;Laerm;61204;49.980;8.358;2023-04-27T13:11:53;57.36;45.79;72.14;;
72276;Laerm;61204;49.980;8.358;2023-04-27T13:14:19;56.19;47.49;66.98;;
72276;Laerm;61204;49.980;8.358;2023-04-27T13:16:45;60.99;46.01;73.82;;
72276;Laerm;61204;49.980;8.358;2023-04-27T13:19:11;54.19;42.98;68.40;;
72276;Laerm;61204;49.980;8.358;2023-04-27T13:21:37;53.90;43.79;68.55;;
72276;Laerm;61204;49.980;8.358;2023-04-27T13:24:02;51.66;46.96;59.31;;
72276;Laerm;61204;49.980;8.358;2023-04-27T13:26:28;52.18;47.34;60.25;;
72276;Laerm;61204;49.980;8.358;2023-04-27T13:28:53;59.16;48.23;74.91;;
72276;Laerm;61204;49.980;8.358;2023-04-27T13:31:19;52.17;47.24;61.42;;
72276;Laerm;61204;49.980;8.358;2023-04-27T13:33:45;53.03;48.12;63.76;;
72276;Laerm;61204;49.980;8.358;2023-04-27T13:36:12;57.45;48.14;69.74;;
72276;Laerm;61204;49.980;8.358;2023-04-27T13:38:38;56.23;47.25;69.41;;
72276;Laerm;61204;49.980;8.358;2023-04-27T13:41:04;55.37;46.46;67.51;;
72276;Laerm;61204;49.980;8.358;2023-04-27T13:43:30;55.41;47.05;66.50;;
72276;Laerm;61204;49.980;8.358;2023-04-27T13:46:00;52.75;46.44;61.54;;
72276;Laerm;61204;49.980;8.358;2023-04-27T13:48:27;52.47;45.04;63.31;;
72276;Laerm;61204;49.980;8.358;2023-04-27T13:50:56;50.74;45.82;58.61;;
72276;Laerm;61204;49.980;8.358;2023-04-27T13:53:22;49.66;45.59;61.19;;
72276;Laerm;61204;49.980;8.358;2023-04-27T13:55:57;51.09;45.68;62.11;;
72276;Laerm;61204;49.980;8.358;2023-04-27T13:58:23;48.94;43.78;53.55;;